DNSO

Details ICAO DNSO (SKO)
Name SADIQ ABUBAKAR III INTL
Region Nigeria
Timezone Africa/Lagos (UTC+1.0)
Plans Departing 7
Arriving 16
Stats Elevation 1,010 ft / 308 m (AMSL)
Location 12.915896° 5.206894°
Runways 1
Magnetic Variation 0.642° W
Sunrise 2017-12-12 05:53:02 UTC / 2017-12-12 06:53:02 Local
Sunset 2017-12-12 17:15:37 UTC / 2017-12-12 18:15:37 Local
Advertisement - Login to hide

Runways

ID Width Length Bearing (true) Bearing (mag) Surface Threshold Offset Overrun Length
08 197 ft / 60 m 9,837 ft / 2,998 m 76.61° 77.25° Asphalt 0 ft / 0 m 390 ft / 119 m
26 197 ft / 60 m 9,837 ft / 2,998 m 256.61° 257.25° Asphalt 0 ft / 0 m 390 ft / 119 m

Approach Navaids

Runway Type Ident Frequency Range Bearing (true) Bearing (mag) Slope Elevation
08 Localiser ISK 109.50 MHz 18 nm / 33 km 76.62° 77.26° - 1,024 ft / 312 m (AMSL)
08 Glidescope ISK 109.50 MHz 10 nm / 19 km 76.61° 77.25° 3.00° 1,047 ft / 319 m (AMSL)
08 DME ISK 109.50 MHz 18 nm / 33 km - - - 1,010 ft / 308 m (AMSL)

Map

Weather


0- 5 10 15 20 25 30 35+ Temperature / ° C

Clouds and Precipitation
Forecast for 2017-12-13 00:00 UTC. Updated an hour ago

Ground ~20,000 ft ~40,000 ft Winds

METAR

Not found

TAF

TAF DNSO 121540Z 1218/1324 09010KT CAVOK

Frequencies

Tower 122.10 MHz SOKOTO TWR
Tower 124.50 MHz SOKOTO TWR
Warning: Do not use this data for real-world aviation or navigation. No guarantee of current accuracy is given.